sensor_id;sensor_type;location;lat;lon;timestamp;P1;durP1;ratioP1;P2;durP2;ratioP2
9942;SDS011;5010;45.080;7.634;2023-07-20T00:00:41;30.20;;;28.70;;
9942;SDS011;5010;45.080;7.634;2023-07-20T00:03:11;30.25;;;28.75;;
9942;SDS011;5010;45.080;7.634;2023-07-20T00:05:41;34.58;;;32.88;;
9942;SDS011;5010;45.080;7.634;2023-07-20T00:08:08;41.90;;;39.88;;
9942;SDS011;5010;45.080;7.634;2023-07-20T00:10:36;30.27;;;28.77;;
9942;SDS011;5010;45.080;7.634;2023-07-20T00:13:04;28.85;;;27.45;;
9942;SDS011;5010;45.080;7.634;2023-07-20T00:15:31;28.20;;;26.80;;
9942;SDS011;5010;45.080;7.634;2023-07-20T00:17:59;29.83;;;28.35;;
9942;SDS011;5010;45.080;7.634;2023-07-20T00:20:26;26.75;;;25.42;;
9942;SDS011;5010;45.080;7.634;2023-07-20T00:22:53;31.45;;;29.90;;
9942;SDS011;5010;45.080;7.634;2023-07-20T00:25:22;32.58;;;30.98;;
9942;SDS011;5010;45.080;7.634;2023-07-20T00:27:49;34.72;;;33.03;;
9942;SDS011;5010;45.080;7.634;2023-07-20T00:30:19;33.15;;;31.55;;
9942;SDS011;5010;45.080;7.634;2023-07-20T00:32:46;31.00;;;29.50;;
9942;SDS011;5010;45.080;7.634;2023-07-20T00:35:14;36.13;;;34.35;;
9942;SDS011;5010;45.080;7.634;2023-07-20T00:37:41;32.42;;;30.83;;
9942;SDS011;5010;45.080;7.634;2023-07-20T00:40:09;30.15;;;28.65;;
9942;SDS011;5010;45.080;7.634;2023-07-20T00:42:36;32.78;;;31.17;;
9942;SDS011;5010;45.080;7.634;2023-07-20T00:45:03;37.60;;;35.80;;
9942;SDS011;5010;45.080;7.634;2023-07-20T00:47:32;35.42;;;33.72;;
9942;SDS011;5010;45.080;7.634;2023-07-20T00:50:00;38.90;;;37.00;;
9942;SDS011;5010;45.080;7.634;2023-07-20T00:52:27;35.25;;;33.55;;
9942;SDS011;5010;45.080;7.634;2023-07-20T00:54:55;34.47;;;32.78;;
9942;SDS011;5010;45.080;7.634;2023-07-20T00:57:23;40.58;;;38.58;;
9942;SDS011;5010;45.080;7.634;2023-07-20T00:59:51;39.70;;;37.78;;
9942;SDS011;5010;45.080;7.634;2023-07-20T01:02:18;36.05;;;34.25;;
9942;SDS011;5010;45.080;7.634;2023-07-20T01:04:47;36.38;;;34.58;;
9942;SDS011;5010;45.080;7.634;2023-07-20T01:07:19;38.80;;;36.90;;
9942;SDS011;5010;45.080;7.634;2023-07-20T01:09:48;32.55;;;30.95;;
9942;SDS011;5010;45.080;7.634;2023-07-20T01:12:20;37.00;;;35.20;;
9942;SDS011;5010;45.080;7.634;2023-07-20T01:14:49;38.10;;;36.20;;
9942;SDS011;5010;45.080;7.634;2023-07-20T01:17:17;36.95;;;35.15;;
9942;SDS011;5010;45.080;7.634;2023-07-20T01:19:44;32.90;;;31.30;;
9942;SDS011;5010;45.080;7.634;2023-07-20T01:22:15;32.85;;;31.25;;
9942;SDS011;5010;45.080;7.634;2023-07-20T01:25:03;37.63;;;35.78;;
9942;SDS011;5010;45.080;7.634;2023-07-20T01:27:43;33.25;;;31.63;;
9942;SDS011;5010;45.080;7.634;2023-07-20T01:30:24;32.58;;;30.98;;
9942;SDS011;5010;45.080;7.634;2023-07-20T01:32:54;32.00;;;30.40;;
9942;SDS011;5010;45.080;7.634;2023-07-20T01:35:23;35.85;;;34.10;;
9942;SDS011;5010;45.080;7.634;2023-07-20T01:37:50;31.50;;;29.95;;
9942;SDS011;5010;45.080;7.634;2023-07-20T01:40:19;34.28;;;32.58;;
9942;SDS011;5010;45.080;7.634;2023-07-20T01:42:46;41.75;;;39.72;;
9942;SDS011;5010;45.080;7.634;2023-07-20T01:45:14;42.88;;;40.78;;
9942;SDS011;5010;45.080;7.634;2023-07-20T01:47:41;31.10;;;29.58;;
9942;SDS011;5010;45.080;7.634;2023-07-20T01:50:10;31.73;;;30.15;;
9942;SDS011;5010;45.080;7.634;2023-07-20T01:52:37;32.58;;;30.98;;
9942;SDS011;5010;45.080;7.634;2023-07-20T01:55:05;34.35;;;32.65;;
9942;SDS011;5010;45.080;7.634;2023-07-20T01:57:32;39.00;;;37.10;;
9942;SDS011;5010;45.080;7.634;2023-07-20T02:00:00;29.27;;;27.85;;
9942;SDS011;5010;45.080;7.634;2023-07-20T02:02:27;27.10;;;25.77;;
9942;SDS011;5010;45.080;7.634;2023-07-20T02:04:55;35.13;;;33.42;;
9942;SDS011;5010;45.080;7.634;2023-07-20T02:07:23;32.17;;;30.58;;
9942;SDS011;5010;45.080;7.634;2023-07-20T02:09:51;29.85;;;28.35;;
9942;SDS011;5010;45.080;7.634;2023-07-20T02:12:18;29.98;;;28.48;;
9942;SDS011;5010;45.080;7.634;2023-07-20T02:14:45;30.23;;;28.73;;
9942;SDS011;5010;45.080;7.634;2023-07-20T02:17:13;27.15;;;25.83;;
9942;SDS011;5010;45.080;7.634;2023-07-20T02:19:40;30.88;;;29.38;;
9942;SDS011;5010;45.080;7.634;2023-07-20T02:22:07;30.65;;;29.15;;
9942;SDS011;5010;45.080;7.634;2023-07-20T02:24:36;21.48;;;20.38;;
9942;SDS011;5010;45.080;7.634;2023-07-20T02:27:04;33.00;;;31.40;;
9942;SDS011;5010;45.080;7.634;2023-07-20T02:29:32;26.85;;;25.55;;
9942;SDS011;5010;45.080;7.634;2023-07-20T02:31:59;28.35;;;26.95;;
9942;SDS011;5010;45.080;7.634;2023-07-20T02:34:26;30.13;;;28.63;;
9942;SDS011;5010;45.080;7.634;2023-07-20T02:36:54;25.40;;;24.10;;
9942;SDS011;5010;45.080;7.634;2023-07-20T02:39:23;31.02;;;29.50;;
9942;SDS011;5010;45.080;7.634;2023-07-20T02:41:52;27.70;;;26.30;;
9942;SDS011;5010;45.080;7.634;2023-07-20T02:44:19;24.95;;;23.75;;
9942;SDS011;5010;45.080;7.634;2023-07-20T02:46:46;27.48;;;26.13;;
9942;SDS011;5010;45.080;7.634;2023-07-20T02:49:14;25.27;;;24.02;;
9942;SDS011;5010;45.080;7.634;2023-07-20T02:51:42;20.65;;;19.65;;
9942;SDS011;5010;45.080;7.634;2023-07-20T02:54:09;22.00;;;20.90;;
9942;SDS011;5010;45.080;7.634;2023-07-20T02:56:36;20.73;;;19.73;;
9942;SDS011;5010;45.080;7.634;2023-07-20T02:59:05;22.25;;;21.15;;
9942;SDS011;5010;45.080;7.634;2023-07-20T03:01:32;22.98;;;21.83;;
9942;SDS011;5010;45.080;7.634;2023-07-20T03:03:59;24.65;;;23.45;;
9942;SDS011;5010;45.080;7.634;2023-07-20T03:06:27;24.02;;;22.83;;
9942;SDS011;5010;45.080;7.634;2023-07-20T03:08:54;21.17;;;20.08;;
9942;SDS011;5010;45.080;7.634;2023-07-20T03:11:23;21.17;;;20.08;;
9942;SDS011;5010;45.080;7.634;2023-07-20T03:13:50;27.70;;;26.33;;
9942;SDS011;5010;45.080;7.634;2023-07-20T03:16:19;19.08;;;18.08;;
9942;SDS011;5010;45.080;7.634;2023-07-20T03:18:46;20.70;;;19.70;;
9942;SDS011;5010;45.080;7.634;2023-07-20T03:21:13;18.00;;;17.10;;
9942;SDS011;5010;45.080;7.634;2023-07-20T03:23:42;17.77;;;16.88;;
9942;SDS011;5010;45.080;7.634;2023-07-20T03:26:09;23.55;;;22.35;;
9942;SDS011;5010;45.080;7.634;2023-07-20T03:28:37;17.67;;;16.77;;
9942;SDS011;5010;45.080;7.634;2023-07-20T03:31:04;22.27;;;21.17;;
9942;SDS011;5010;45.080;7.634;2023-07-20T03:33:33;19.52;;;18.52;;
9942;SDS011;5010;45.080;7.634;2023-07-20T03:36:01;25.75;;;24.45;;
9942;SDS011;5010;45.080;7.634;2023-07-20T03:38:28;22.52;;;21.42;;
9942;SDS011;5010;45.080;7.634;2023-07-20T03:40:56;21.52;;;20.42;;
9942;SDS011;5010;45.080;7.634;2023-07-20T03:43:23;23.42;;;22.23;;
9942;SDS011;5010;45.080;7.634;2023-07-20T03:45:51;19.40;;;18.40;;
9942;SDS011;5010;45.080;7.634;2023-07-20T03:48:19;19.95;;;18.95;;
9942;SDS011;5010;45.080;7.634;2023-07-20T03:50:48;18.23;;;17.33;;
9942;SDS011;5010;45.080;7.634;2023-07-20T03:53:16;20.58;;;19.55;;
9942;SDS011;5010;45.080;7.634;2023-07-20T03:55:44;21.63;;;20.52;;
9942;SDS011;5010;45.080;7.634;2023-07-20T03:58:12;22.65;;;21.52;;
9942;SDS011;5010;45.080;7.634;2023-07-20T04:00:39;19.65;;;18.65;;
9942;SDS011;5010;45.080;7.634;2023-07-20T04:03:06;21.45;;;20.35;;
9942;SDS011;5010;45.080;7.634;2023-07-20T04:05:34;20.00;;;19.00;;
9942;SDS011;5010;45.080;7.634;2023-07-20T04:08:02;22.08;;;20.98;;
9942;SDS011;5010;45.080;7.634;2023-07-20T04:10:32;24.50;;;23.30;;
9942;SDS011;5010;45.080;7.634;2023-07-20T04:12:59;21.27;;;20.17;;
9942;SDS011;5010;45.080;7.634;2023-07-20T04:15:27;23.90;;;22.70;;
9942;SDS011;5010;45.080;7.634;2023-07-20T04:17:54;23.02;;;21.88;;
9942;SDS011;5010;45.080;7.634;2023-07-20T04:20:21;22.65;;;21.55;;
9942;SDS011;5010;45.080;7.634;2023-07-20T04:22:49;25.80;;;24.50;;
9942;SDS011;5010;45.080;7.634;2023-07-20T04:25:17;21.33;;;20.23;;
9942;SDS011;5010;45.080;7.634;2023-07-20T04:27:45;25.13;;;19.60;;
9942;SDS011;5010;45.080;7.634;2023-07-20T04:30:12;22.25;;;21.15;;
9942;SDS011;5010;45.080;7.634;2023-07-20T04:32:40;21.38;;;20.30;;
9942;SDS011;5010;45.080;7.634;2023-07-20T04:35:10;22.50;;;21.40;;
9942;SDS011;5010;45.080;7.634;2023-07-20T04:37:38;20.65;;;19.65;;
9942;SDS011;5010;45.080;7.634;2023-07-20T04:40:11;24.50;;;23.30;;
9942;SDS011;5010;45.080;7.634;2023-07-20T04:42:39;30.38;;;28.88;;
9942;SDS011;5010;45.080;7.634;2023-07-20T04:45:07;23.73;;;22.52;;
9942;SDS011;5010;45.080;7.634;2023-07-20T04:47:34;20.85;;;19.83;;
9942;SDS011;5010;45.080;7.634;2023-07-20T04:50:02;19.13;;;18.17;;
9942;SDS011;5010;45.080;7.634;2023-07-20T04:52:29;25.90;;;24.60;;
9942;SDS011;5010;45.080;7.634;2023-07-20T04:54:57;18.50;;;17.60;;
9942;SDS011;5010;45.080;7.634;2023-07-20T04:57:24;25.35;;;24.05;;
9942;SDS011;5010;45.080;7.634;2023-07-20T04:59:53;25.95;;;24.65;;
9942;SDS011;5010;45.080;7.634;2023-07-20T05:02:20;23.83;;;22.63;;
9942;SDS011;5010;45.080;7.634;2023-07-20T05:04:47;21.30;;;20.20;;
9942;SDS011;5010;45.080;7.634;2023-07-20T05:07:15;24.75;;;23.55;;
9942;SDS011;5010;45.080;7.634;2023-07-20T05:09:42;24.42;;;23.23;;
9942;SDS011;5010;45.080;7.634;2023-07-20T05:12:11;23.50;;;22.30;;
9942;SDS011;5010;45.080;7.634;2023-07-20T05:14:38;22.23;;;21.13;;
9942;SDS011;5010;45.080;7.634;2023-07-20T05:17:08;23.30;;;22.10;;
9942;SDS011;5010;45.080;7.634;2023-07-20T05:19:35;29.38;;;27.92;;
9942;SDS011;5010;45.080;7.634;2023-07-20T05:22:03;24.98;;;23.75;;
9942;SDS011;5010;45.080;7.634;2023-07-20T05:24:30;27.00;;;25.70;;
9942;SDS011;5010;45.080;7.634;2023-07-20T05:26:57;26.45;;;25.15;;
9942;SDS011;5010;45.080;7.634;2023-07-20T05:29:25;20.95;;;19.92;;
9942;SDS011;5010;45.080;7.634;2023-07-20T05:31:52;19.70;;;18.70;;
9942;SDS011;5010;45.080;7.634;2023-07-20T05:34:21;25.58;;;24.27;;
9942;SDS011;5010;45.080;7.634;2023-07-20T05:36:48;28.13;;;26.73;;
9942;SDS011;5010;45.080;7.634;2023-07-20T05:39:16;28.08;;;26.67;;
9942;SDS011;5010;45.080;7.634;2023-07-20T05:41:43;20.58;;;19.58;;
9942;SDS011;5010;45.080;7.634;2023-07-20T05:44:10;24.00;;;22.80;;
9942;SDS011;5010;45.080;7.634;2023-07-20T05:46:38;24.98;;;23.77;;
9942;SDS011;5010;45.080;7.634;2023-07-20T05:49:05;28.13;;;26.73;;
9942;SDS011;5010;45.080;7.634;2023-07-20T05:51:34;26.27;;;24.98;;
9942;SDS011;5010;45.080;7.634;2023-07-20T05:54:01;26.83;;;25.50;;
9942;SDS011;5010;45.080;7.634;2023-07-20T05:56:28;26.42;;;25.13;;
9942;SDS011;5010;45.080;7.634;2023-07-20T05:58:55;23.58;;;22.38;;
9942;SDS011;5010;45.080;7.634;2023-07-20T06:01:23;23.15;;;21.98;;
9942;SDS011;5010;45.080;7.634;2023-07-20T06:03:52;23.17;;;22.00;;
9942;SDS011;5010;45.080;7.634;2023-07-20T06:06:19;24.52;;;23.33;;
9942;SDS011;5010;45.080;7.634;2023-07-20T06:08:48;24.13;;;22.92;;
9942;SDS011;5010;45.080;7.634;2023-07-20T06:11:15;22.40;;;21.30;;
9942;SDS011;5010;45.080;7.634;2023-07-20T06:13:42;21.58;;;20.48;;
9942;SDS011;5010;45.080;7.634;2023-07-20T06:16:09;20.45;;;19.45;;
9942;SDS011;5010;45.080;7.634;2023-07-20T06:18:37;19.40;;;18.40;;
9942;SDS011;5010;45.080;7.634;2023-07-20T06:21:04;18.60;;;17.70;;
9942;SDS011;5010;45.080;7.634;2023-07-20T06:23:32;19.50;;;18.50;;
9942;SDS011;5010;45.080;7.634;2023-07-20T06:26:00;25.25;;;24.00;;
9942;SDS011;5010;45.080;7.634;2023-07-20T06:28:28;22.65;;;21.55;;
9942;SDS011;5010;45.080;7.634;2023-07-20T06:30:58;22.40;;;21.30;;
9942;SDS011;5010;45.080;7.634;2023-07-20T06:33:27;21.15;;;20.08;;
9942;SDS011;5010;45.080;7.634;2023-07-20T06:35:54;17.98;;;16.88;;
9942;SDS011;5010;45.080;7.634;2023-07-20T06:38:22;17.88;;;16.98;;
9942;SDS011;5010;45.080;7.634;2023-07-20T06:40:49;18.77;;;17.85;;
9942;SDS011;5010;45.080;7.634;2023-07-20T06:43:18;23.40;;;22.20;;
9942;SDS011;5010;45.080;7.634;2023-07-20T06:45:50;16.40;;;15.60;;
9942;SDS011;5010;45.080;7.634;2023-07-20T06:48:18;20.33;;;19.33;;
9942;SDS011;5010;45.080;7.634;2023-07-20T06:50:45;19.92;;;18.92;;
9942;SDS011;5010;45.080;7.634;2023-07-20T06:53:12;23.00;;;21.90;;
9942;SDS011;5010;45.080;7.634;2023-07-20T06:55:41;21.25;;;20.17;;
9942;SDS011;5010;45.080;7.634;2023-07-20T06:58:08;22.73;;;21.63;;
9942;SDS011;5010;45.080;7.634;2023-07-20T07:00:37;20.73;;;19.73;;
9942;SDS011;5010;45.080;7.634;2023-07-20T07:03:04;18.77;;;17.85;;
9942;SDS011;5010;45.080;7.634;2023-07-20T07:05:34;21.38;;;20.27;;
9942;SDS011;5010;45.080;7.634;2023-07-20T07:08:02;20.88;;;19.83;;
9942;SDS011;5010;45.080;7.634;2023-07-20T07:10:29;19.50;;;18.50;;
9942;SDS011;5010;45.080;7.634;2023-07-20T07:12:56;23.95;;;22.75;;
9942;SDS011;5010;45.080;7.634;2023-07-20T07:15:24;25.38;;;24.13;;
9942;SDS011;5010;45.080;7.634;2023-07-20T07:17:54;21.88;;;20.77;;
9942;SDS011;5010;45.080;7.634;2023-07-20T07:20:22;21.20;;;20.10;;
9942;SDS011;5010;45.080;7.634;2023-07-20T07:22:50;22.27;;;21.17;;
9942;SDS011;5010;45.080;7.634;2023-07-20T07:25:18;22.30;;;21.20;;
9942;SDS011;5010;45.080;7.634;2023-07-20T07:27:45;23.67;;;22.48;;
9942;SDS011;5010;45.080;7.634;2023-07-20T07:30:12;24.50;;;23.30;;
9942;SDS011;5010;45.080;7.634;2023-07-20T07:32:40;17.50;;;16.60;;
9942;SDS011;5010;45.080;7.634;2023-07-20T07:35:08;17.95;;;17.05;;
9942;SDS011;5010;45.080;7.634;2023-07-20T07:37:36;22.75;;;21.65;;
9942;SDS011;5010;45.080;7.634;2023-07-20T07:40:04;19.00;;;18.00;;
9942;SDS011;5010;45.080;7.634;2023-07-20T07:42:33;18.95;;;18.00;;
9942;SDS011;5010;45.080;7.634;2023-07-20T07:45:00;20.20;;;19.20;;
9942;SDS011;5010;45.080;7.634;2023-07-20T07:47:27;22.58;;;21.48;;
9942;SDS011;5010;45.080;7.634;2023-07-20T07:49:54;20.20;;;19.20;;
9942;SDS011;5010;45.080;7.634;2023-07-20T07:52:23;22.42;;;21.33;;
9942;SDS011;5010;45.080;7.634;2023-07-20T07:54:51;20.55;;;19.55;;
9942;SDS011;5010;45.080;7.634;2023-07-20T07:57:18;23.75;;;22.55;;
9942;SDS011;5010;45.080;7.634;2023-07-20T07:59:46;19.02;;;18.08;;
9942;SDS011;5010;45.080;7.634;2023-07-20T08:02:13;19.77;;;18.77;;
9942;SDS011;5010;45.080;7.634;2023-07-20T08:04:40;21.35;;;20.27;;
9942;SDS011;5010;45.080;7.634;2023-07-20T08:07:08;22.42;;;21.33;;
9942;SDS011;5010;45.080;7.634;2023-07-20T08:09:36;20.35;;;19.35;;
9942;SDS011;5010;45.080;7.634;2023-07-20T08:12:04;24.65;;;23.45;;
9942;SDS011;5010;45.080;7.634;2023-07-20T08:14:31;19.83;;;18.83;;
9942;SDS011;5010;45.080;7.634;2023-07-20T08:16:58;18.83;;;17.88;;
9942;SDS011;5010;45.080;7.634;2023-07-20T08:19:26;23.90;;;22.70;;
9942;SDS011;5010;45.080;7.634;2023-07-20T08:21:53;22.90;;;21.80;;
9942;SDS011;5010;45.080;7.634;2023-07-20T08:24:21;20.42;;;19.42;;
9942;SDS011;5010;45.080;7.634;2023-07-20T08:26:50;20.58;;;19.58;;
9942;SDS011;5010;45.080;7.634;2023-07-20T08:29:17;19.30;;;18.30;;
9942;SDS011;5010;45.080;7.634;2023-07-20T08:31:44;19.65;;;18.65;;
9942;SDS011;5010;45.080;7.634;2023-07-20T08:34:12;19.73;;;18.73;;
9942;SDS011;5010;45.080;7.634;2023-07-20T08:36:39;20.08;;;19.08;;
9942;SDS011;5010;45.080;7.634;2023-07-20T08:39:06;17.80;;;16.90;;
9942;SDS011;5010;45.080;7.634;2023-07-20T08:41:35;18.80;;;15.85;;
9942;SDS011;5010;45.080;7.634;2023-07-20T08:44:04;21.35;;;20.25;;
9942;SDS011;5010;45.080;7.634;2023-07-20T08:46:32;19.45;;;18.45;;
9942;SDS011;5010;45.080;7.634;2023-07-20T08:49:00;21.45;;;20.38;;
9942;SDS011;5010;45.080;7.634;2023-07-20T08:51:28;17.70;;;16.80;;
9942;SDS011;5010;45.080;7.634;2023-07-20T08:53:56;19.10;;;18.10;;
9942;SDS011;5010;45.080;7.634;2023-07-20T08:56:23;17.67;;;16.77;;
9942;SDS011;5010;45.080;7.634;2023-07-20T08:58:52;23.30;;;22.13;;
9942;SDS011;5010;45.080;7.634;2023-07-20T09:01:21;17.70;;;16.80;;
9942;SDS011;5010;45.080;7.634;2023-07-20T09:03:48;19.77;;;18.77;;
9942;SDS011;5010;45.080;7.634;2023-07-20T09:06:16;20.73;;;19.70;;
9942;SDS011;5010;45.080;7.634;2023-07-20T09:08:43;21.55;;;20.45;;
9942;SDS011;5010;45.080;7.634;2023-07-20T09:11:11;25.13;;;23.88;;
9942;SDS011;5010;45.080;7.634;2023-07-20T09:13:38;21.20;;;20.10;;
9942;SDS011;5010;45.080;7.634;2023-07-20T09:16:05;21.15;;;20.05;;
9942;SDS011;5010;45.080;7.634;2023-07-20T09:18:34;21.98;;;20.88;;
9942;SDS011;5010;45.080;7.634;2023-07-20T09:21:02;20.67;;;19.67;;
9942;SDS011;5010;45.080;7.634;2023-07-20T09:23:30;23.73;;;22.52;;
9942;SDS011;5010;45.080;7.634;2023-07-20T09:25:57;17.63;;;16.73;;
9942;SDS011;5010;45.080;7.634;2023-07-20T09:28:25;18.60;;;17.70;;
9942;SDS011;5010;45.080;7.634;2023-07-20T09:30:53;16.73;;;15.88;;
9942;SDS011;5010;45.080;7.634;2023-07-20T09:33:23;22.33;;;21.23;;
9942;SDS011;5010;45.080;7.634;2023-07-20T09:35:51;19.45;;;18.45;;
9942;SDS011;5010;45.080;7.634;2023-07-20T09:38:18;19.17;;;18.17;;
9942;SDS011;5010;45.080;7.634;2023-07-20T09:40:46;18.17;;;17.27;;
9942;SDS011;5010;45.080;7.634;2023-07-20T09:43:15;18.48;;;17.55;;
9942;SDS011;5010;45.080;7.634;2023-07-20T09:45:42;19.48;;;18.48;;
9942;SDS011;5010;45.080;7.634;2023-07-20T09:48:10;18.33;;;17.42;;
9942;SDS011;5010;45.080;7.634;2023-07-20T09:50:41;18.60;;;17.70;;
9942;SDS011;5010;45.080;7.634;2023-07-20T09:53:11;19.83;;;18.83;;
9942;SDS011;5010;45.080;7.634;2023-07-20T09:55:39;18.90;;;17.95;;
9942;SDS011;5010;45.080;7.634;2023-07-20T09:58:08;18.90;;;17.95;;
9942;SDS011;5010;45.080;7.634;2023-07-20T10:00:35;21.02;;;19.98;;
9942;SDS011;5010;45.080;7.634;2023-07-20T10:03:04;27.00;;;25.70;;
9942;SDS011;5010;45.080;7.634;2023-07-20T10:05:33;17.35;;;16.45;;
9942;SDS011;5010;45.080;7.634;2023-07-20T10:08:01;23.05;;;21.92;;
9942;SDS011;5010;45.080;7.634;2023-07-20T10:10:31;22.50;;;21.40;;
9942;SDS011;5010;45.080;7.634;2023-07-20T10:12:59;18.58;;;17.67;;
9942;SDS011;5010;45.080;7.634;2023-07-20T10:15:28;26.00;;;24.70;;
9942;SDS011;5010;45.080;7.634;2023-07-20T10:17:57;24.42;;;23.23;;
9942;SDS011;5010;45.080;7.634;2023-07-20T10:20:26;20.98;;;19.92;;
9942;SDS011;5010;45.080;7.634;2023-07-20T10:22:54;21.17;;;20.08;;
9942;SDS011;5010;45.080;7.634;2023-07-20T10:25:22;25.00;;;23.80;;
9942;SDS011;5010;45.080;7.634;2023-07-20T10:27:52;23.73;;;22.52;;
9942;SDS011;5010;45.080;7.634;2023-07-20T10:30:19;23.15;;;21.98;;
9942;SDS011;5010;45.080;7.634;2023-07-20T10:32:46;21.48;;;20.38;;
9942;SDS011;5010;45.080;7.634;2023-07-20T10:35:14;21.98;;;20.88;;
9942;SDS011;5010;45.080;7.634;2023-07-20T10:37:48;20.75;;;19.75;;
9942;SDS011;5010;45.080;7.634;2023-07-20T10:40:26;20.20;;;19.20;;
9942;SDS011;5010;45.080;7.634;2023-07-20T10:42:58;24.15;;;22.95;;
9942;SDS011;5010;45.080;7.634;2023-07-20T10:48:18;19.90;;;18.90;;
9942;SDS011;5010;45.080;7.634;2023-07-20T10:50:46;23.58;;;22.38;;
9942;SDS011;5010;45.080;7.634;2023-07-20T10:53:13;21.85;;;20.75;;
9942;SDS011;5010;45.080;7.634;2023-07-20T10:55:41;20.58;;;19.58;;
9942;SDS011;5010;45.080;7.634;2023-07-20T10:58:11;23.65;;;22.45;;
9942;SDS011;5010;45.080;7.634;2023-07-20T11:00:54;21.10;;;20.05;;
9942;SDS011;5010;45.080;7.634;2023-07-20T11:03:26;18.83;;;17.88;;
9942;SDS011;5010;45.080;7.634;2023-07-20T11:05:57;18.48;;;17.58;;
9942;SDS011;5010;45.080;7.634;2023-07-20T11:11:22;19.17;;;18.17;;
9942;SDS011;5010;45.080;7.634;2023-07-20T11:13:58;21.90;;;20.80;;
9942;SDS011;5010;45.080;7.634;2023-07-20T11:16:32;20.10;;;19.10;;
9942;SDS011;5010;45.080;7.634;2023-07-20T11:19:00;25.35;;;24.05;;
9942;SDS011;5010;45.080;7.634;2023-07-20T11:21:32;20.63;;;19.63;;
9942;SDS011;5010;45.080;7.634;2023-07-20T11:24:02;21.17;;;20.10;;
9942;SDS011;5010;45.080;7.634;2023-07-20T11:26:45;21.95;;;20.85;;
9942;SDS011;5010;45.080;7.634;2023-07-20T11:29:20;27.20;;;25.88;;
9942;SDS011;5010;45.080;7.634;2023-07-20T11:31:48;22.13;;;21.02;;
9942;SDS011;5010;45.080;7.634;2023-07-20T11:34:16;21.63;;;20.52;;
9942;SDS011;5010;45.080;7.634;2023-07-20T11:36:44;22.38;;;21.27;;
9942;SDS011;5010;45.080;7.634;2023-07-20T11:39:14;23.55;;;22.35;;
9942;SDS011;5010;45.080;7.634;2023-07-20T11:41:46;20.90;;;19.90;;
9942;SDS011;5010;45.080;7.634;2023-07-20T11:44:20;21.15;;;20.05;;
9942;SDS011;5010;45.080;7.634;2023-07-20T11:46:53;28.58;;;27.17;;
9942;SDS011;5010;45.080;7.634;2023-07-20T11:49:26;27.58;;;26.17;;
9942;SDS011;5010;45.080;7.634;2023-07-20T11:51:53;20.05;;;19.05;;
9942;SDS011;5010;45.080;7.634;2023-07-20T11:54:21;22.23;;;21.13;;
9942;SDS011;5010;45.080;7.634;2023-07-20T11:56:48;22.23;;;21.13;;
9942;SDS011;5010;45.080;7.634;2023-07-20T11:59:21;26.05;;;24.75;;
9942;SDS011;5010;45.080;7.634;2023-07-20T12:01:49;25.13;;;23.88;;
9942;SDS011;5010;45.080;7.634;2023-07-20T12:04:16;29.45;;;28.00;;
9942;SDS011;5010;45.080;7.634;2023-07-20T12:06:44;23.77;;;22.58;;
9942;SDS011;5010;45.080;7.634;2023-07-20T12:09:13;22.40;;;21.30;;
9942;SDS011;5010;45.080;7.634;2023-07-20T12:11:43;23.38;;;22.20;;
9942;SDS011;5010;45.080;7.634;2023-07-20T12:14:10;22.20;;;21.10;;
9942;SDS011;5010;45.080;7.634;2023-07-20T12:16:39;20.75;;;19.73;;
9942;SDS011;5010;45.080;7.634;2023-07-20T12:19:07;19.00;;;18.02;;
9942;SDS011;5010;45.080;7.634;2023-07-20T12:21:34;23.20;;;22.02;;
9942;SDS011;5010;45.080;7.634;2023-07-20T12:24:02;20.58;;;19.58;;
9942;SDS011;5010;45.080;7.634;2023-07-20T12:26:30;19.30;;;18.30;;
9942;SDS011;5010;45.080;7.634;2023-07-20T12:29:12;17.05;;;16.15;;
9942;SDS011;5010;45.080;7.634;2023-07-20T12:31:40;18.27;;;17.38;;
9942;SDS011;5010;45.080;7.634;2023-07-20T12:34:08;18.50;;;17.60;;
9942;SDS011;5010;45.080;7.634;2023-07-20T12:36:36;23.02;;;21.90;;
9942;SDS011;5010;45.080;7.634;2023-07-20T12:39:03;21.42;;;20.33;;
9942;SDS011;5010;45.080;7.634;2023-07-20T12:41:31;23.88;;;22.67;;
9942;SDS011;5010;45.080;7.634;2023-07-20T12:43:58;20.10;;;19.10;;
9942;SDS011;5010;45.080;7.634;2023-07-20T12:46:27;21.20;;;20.13;;
9942;SDS011;5010;45.080;7.634;2023-07-20T12:48:56;22.88;;;21.75;;
9942;SDS011;5010;45.080;7.634;2023-07-20T12:51:23;18.13;;;17.23;;
9942;SDS011;5010;45.080;7.634;2023-07-20T12:53:50;20.80;;;19.77;;
9942;SDS011;5010;45.080;7.634;2023-07-20T12:56:20;18.70;;;17.80;;
9942;SDS011;5010;45.080;7.634;2023-07-20T12:58:47;19.23;;;18.25;;
9942;SDS011;5010;45.080;7.634;2023-07-20T13:01:15;19.83;;;18.83;;
9942;SDS011;5010;45.080;7.634;2023-07-20T13:03:42;18.65;;;17.75;;
9942;SDS011;5010;45.080;7.634;2023-07-20T13:06:11;22.92;;;21.83;;
9942;SDS011;5010;45.080;7.634;2023-07-20T13:08:38;20.75;;;19.75;;
9942;SDS011;5010;45.080;7.634;2023-07-20T13:11:05;22.55;;;21.42;;
9942;SDS011;5010;45.080;7.634;2023-07-20T13:13:32;23.08;;;21.92;;
9942;SDS011;5010;45.080;7.634;2023-07-20T13:16:00;22.73;;;21.63;;
9942;SDS011;5010;45.080;7.634;2023-07-20T13:18:27;29.08;;;27.67;;
9942;SDS011;5010;45.080;7.634;2023-07-20T13:20:54;24.70;;;23.50;;
9942;SDS011;5010;45.080;7.634;2023-07-20T13:23:23;20.55;;;19.55;;
9942;SDS011;5010;45.080;7.634;2023-07-20T13:25:50;22.45;;;21.35;;
9942;SDS011;5010;45.080;7.634;2023-07-20T13:28:18;21.48;;;20.38;;
9942;SDS011;5010;45.080;7.634;2023-07-20T13:30:45;20.98;;;19.92;;
9942;SDS011;5010;45.080;7.634;2023-07-20T13:33:12;22.10;;;21.00;;
9942;SDS011;5010;45.080;7.634;2023-07-20T13:35:39;28.88;;;27.48;;
9942;SDS011;5010;45.080;7.634;2023-07-20T13:38:06;23.80;;;22.60;;
9942;SDS011;5010;45.080;7.634;2023-07-20T13:40:36;25.60;;;24.33;;
9942;SDS011;5010;45.080;7.634;2023-07-20T13:43:03;24.92;;;23.73;;
9942;SDS011;5010;45.080;7.634;2023-07-20T13:45:30;23.92;;;22.73;;
9942;SDS011;5010;45.080;7.634;2023-07-20T13:47:57;30.23;;;28.73;;
9942;SDS011;5010;45.080;7.634;2023-07-20T13:50:25;23.50;;;22.33;;
9942;SDS011;5010;45.080;7.634;2023-07-20T13:52:53;23.35;;;22.17;;
9942;SDS011;5010;45.080;7.634;2023-07-20T13:55:21;23.05;;;21.90;;
9942;SDS011;5010;45.080;7.634;2023-07-20T13:57:50;20.75;;;19.75;;
9942;SDS011;5010;45.080;7.634;2023-07-20T14:00:17;19.38;;;18.38;;
9942;SDS011;5010;45.080;7.634;2023-07-20T14:02:45;22.58;;;21.48;;
9942;SDS011;5010;45.080;7.634;2023-07-20T14:05:12;22.45;;;21.35;;
9942;SDS011;5010;45.080;7.634;2023-07-20T14:07:41;17.10;;;16.23;;
9942;SDS011;5010;45.080;7.634;2023-07-20T14:10:08;22.55;;;21.45;;
9942;SDS011;5010;45.080;7.634;2023-07-20T14:12:35;19.90;;;18.90;;
9942;SDS011;5010;45.080;7.634;2023-07-20T14:15:05;21.63;;;20.52;;
9942;SDS011;5010;45.080;7.634;2023-07-20T14:17:32;23.90;;;22.70;;
9942;SDS011;5010;45.080;7.634;2023-07-20T14:20:00;21.27;;;20.20;;
9942;SDS011;5010;45.080;7.634;2023-07-20T14:22:30;21.33;;;20.23;;
9942;SDS011;5010;45.080;7.634;2023-07-20T14:24:57;19.90;;;18.90;;
9942;SDS011;5010;45.080;7.634;2023-07-20T14:27:24;21.33;;;20.25;;
9942;SDS011;5010;45.080;7.634;2023-07-20T14:29:52;21.15;;;20.05;;
9942;SDS011;5010;45.080;7.634;2023-07-20T14:32:21;16.67;;;15.85;;
9942;SDS011;5010;45.080;7.634;2023-07-20T14:34:48;20.55;;;19.55;;
9942;SDS011;5010;45.080;7.634;2023-07-20T14:37:16;21.55;;;20.45;;
9942;SDS011;5010;45.080;7.634;2023-07-20T14:39:43;19.25;;;18.27;;
9942;SDS011;5010;45.080;7.634;2023-07-20T14:42:10;22.40;;;21.30;;
9942;SDS011;5010;45.080;7.634;2023-07-20T14:44:38;26.67;;;25.38;;
9942;SDS011;5010;45.080;7.634;2023-07-20T14:47:05;21.45;;;20.35;;
9942;SDS011;5010;45.080;7.634;2023-07-20T14:49:34;20.35;;;19.35;;
9942;SDS011;5010;45.080;7.634;2023-07-20T14:52:01;18.50;;;17.60;;
9942;SDS011;5010;45.080;7.634;2023-07-20T14:54:29;20.80;;;19.77;;
9942;SDS011;5010;45.080;7.634;2023-07-20T14:56:56;22.23;;;21.13;;
9942;SDS011;5010;45.080;7.634;2023-07-20T14:59:23;20.52;;;19.52;;